createdAt,value
2022-10-22T00:00:37.909Z,23.52
2022-10-22T00:03:25.142Z,26.40
2022-10-22T00:05:52.196Z,22.48
2022-10-22T00:08:19.616Z,24.67
2022-10-22T00:10:46.668Z,24.23
2022-10-22T00:13:14.609Z,24.17
2022-10-22T00:15:41.681Z,41.92
2022-10-22T00:18:08.942Z,26.38
2022-10-22T00:20:35.943Z,35.60
2022-10-22T00:23:03.486Z,27.63
2022-10-22T00:25:30.763Z,26.65
2022-10-22T00:27:58.019Z,28.88
2022-10-22T00:30:25.032Z,30.73
2022-10-22T00:32:52.239Z,30.52
2022-10-22T00:35:19.299Z,28.27
2022-10-22T00:37:46.458Z,26.00
2022-10-22T00:40:13.543Z,25.00
2022-10-22T00:42:41.187Z,29.25
2022-10-22T00:45:18.627Z,26.35
2022-10-22T00:48:05.467Z,26.30
2022-10-22T00:50:56.459Z,28.00
2022-10-22T00:53:29.821Z,30.50
2022-10-22T00:55:57.016Z,23.20
2022-10-22T00:58:28.095Z,32.55
2022-10-22T01:00:56.528Z,30.05
2022-10-22T01:03:23.818Z,28.08
2022-10-22T01:05:58.285Z,37.80
2022-10-22T01:08:52.119Z,30.95
2022-10-22T01:11:19.121Z,36.33
2022-10-22T01:13:51.842Z,30.10
2022-10-22T01:16:42.534Z,33.92
2022-10-22T01:19:18.491Z,29.52
2022-10-22T01:21:54.789Z,30.00
2022-10-22T01:24:42.275Z,26.15
2022-10-22T01:27:15.093Z,27.25
2022-10-22T01:29:57.678Z,24.17
2022-10-22T01:32:26.338Z,23.02
2022-10-22T01:35:16.833Z,24.65
2022-10-22T01:37:58.669Z,26.63
2022-10-22T01:40:27.305Z,33.55
2022-10-22T01:43:10.438Z,29.88
2022-10-22T01:45:51.293Z,30.30
2022-10-22T01:48:35.978Z,25.98
2022-10-22T01:51:28.120Z,26.15
2022-10-22T01:54:23.724Z,27.23
2022-10-22T01:59:39.254Z,25.17
2022-10-22T02:02:33.540Z,24.92
2022-10-22T02:05:25.273Z,25.13
2022-10-22T02:07:57.631Z,24.90
2022-10-22T02:10:25.981Z,26.55
2022-10-22T02:12:55.871Z,28.25
2022-10-22T02:15:25.832Z,26.23
2022-10-22T02:17:54.859Z,29.50
2022-10-22T02:20:29.399Z,27.33
2022-10-22T02:22:57.258Z,28.17
2022-10-22T02:25:27.762Z,30.20
2022-10-22T02:28:08.156Z,30.08
2022-10-22T02:30:37.304Z,37.50
2022-10-22T02:33:19.666Z,29.10
2022-10-22T02:35:48.180Z,33.63
2022-10-22T02:38:16.306Z,38.75
2022-10-22T02:40:43.402Z,36.63
2022-10-22T02:43:10.825Z,28.63
2022-10-22T02:45:38.009Z,32.45
2022-10-22T02:48:05.827Z,34.30
2022-10-22T02:50:32.875Z,42.15
2022-10-22T02:53:00.115Z,35.20
2022-10-22T02:55:27.069Z,41.70
2022-10-22T02:57:56.576Z,37.33
2022-10-22T03:00:23.542Z,45.08
2022-10-22T03:02:50.776Z,31.63
2022-10-22T03:05:17.789Z,35.25
2022-10-22T03:07:45.029Z,39.85
2022-10-22T03:10:12.183Z,38.25
2022-10-22T03:12:39.546Z,34.58
2022-10-22T03:15:06.850Z,30.33
2022-10-22T03:17:34.072Z,33.17
2022-10-22T03:20:01.074Z,42.83
2022-10-22T03:22:32.505Z,50.25
2022-10-22T03:25:03.204Z,67.03
2022-10-22T03:27:30.652Z,43.38
2022-10-22T03:29:58.794Z,30.48
2022-10-22T03:32:26.079Z,55.30
2022-10-22T03:34:53.109Z,39.22
2022-10-22T03:37:21.370Z,33.90
2022-10-22T03:39:48.450Z,36.05
2022-10-22T03:42:16.289Z,38.22
2022-10-22T03:44:43.757Z,33.90
2022-10-22T03:47:12.052Z,33.97
2022-10-22T03:49:39.063Z,42.03
2022-10-22T03:52:12.593Z,31.63
2022-10-22T03:54:40.584Z,28.88
2022-10-22T03:57:08.323Z,28.58
2022-10-22T03:59:39.852Z,28.27
2022-10-22T04:02:07.894Z,29.25
2022-10-22T04:04:35.467Z,28.70
2022-10-22T04:07:02.757Z,28.38
2022-10-22T04:09:33.754Z,25.63
2022-10-22T04:12:01.369Z,26.70
2022-10-22T04:14:28.435Z,30.50
2022-10-22T04:16:55.613Z,32.85
2022-10-22T04:19:22.610Z,25.63
2022-10-22T04:21:49.905Z,26.27
2022-10-22T04:24:16.900Z,29.58
2022-10-22T04:26:44.185Z,35.03
2022-10-22T04:29:15.117Z,51.90
2022-10-22T04:31:43.880Z,83.25
2022-10-22T04:34:11.018Z,76.10
2022-10-22T04:36:38.495Z,38.42
2022-10-22T04:39:06.222Z,27.45
2022-10-22T04:41:36.229Z,25.13
2022-10-22T04:44:04.524Z,22.02
2022-10-22T04:46:33.894Z,23.38
2022-10-22T04:49:03.346Z,21.25
2022-10-22T04:51:31.336Z,21.08
2022-10-22T04:53:58.826Z,25.63
2022-10-22T04:56:31.692Z,23.70
2022-10-22T04:59:03.946Z,73.95
2022-10-22T05:01:40.118Z,56.92
2022-10-22T05:04:14.109Z,52.60
2022-10-22T05:06:44.023Z,61.55
2022-10-22T05:09:14.736Z,55.65
2022-10-22T05:11:48.590Z,66.07
2022-10-22T05:14:24.532Z,39.97
2022-10-22T05:16:52.335Z,34.88
2022-10-22T05:19:24.158Z,35.88
2022-10-22T05:21:57.327Z,31.60
2022-10-22T05:24:25.586Z,30.55
2022-10-22T05:26:54.660Z,26.65
2022-10-22T05:29:22.469Z,22.92
2022-10-22T05:31:50.107Z,22.55
2022-10-22T05:34:17.522Z,23.40
2022-10-22T05:36:44.965Z,26.70
2022-10-22T05:39:12.432Z,26.20
2022-10-22T05:41:39.747Z,30.33
2022-10-22T05:44:06.851Z,29.00
2022-10-22T05:46:36.116Z,24.48
2022-10-22T05:49:06.122Z,21.63
2022-10-22T05:51:35.442Z,28.40
2022-10-22T05:54:06.204Z,21.15
2022-10-22T05:56:34.487Z,23.60
2022-10-22T06:01:35.586Z,20.90
2022-10-22T06:04:05.491Z,24.05
2022-10-22T06:06:42.876Z,34.08
2022-10-22T06:09:31.664Z,22.27
2022-10-22T06:11:59.666Z,20.65
2022-10-22T06:14:27.518Z,36.53
2022-10-22T06:16:55.236Z,25.98
2022-10-22T06:19:26.785Z,25.27
2022-10-22T06:21:54.308Z,31.00
2022-10-22T06:24:21.314Z,31.08
2022-10-22T06:26:53.167Z,34.42
2022-10-22T06:29:20.221Z,32.00
2022-10-22T06:31:47.653Z,27.88
2022-10-22T06:34:15.796Z,31.27
2022-10-22T06:36:44.747Z,32.28
2022-10-22T06:39:13.603Z,30.83
2022-10-22T06:41:41.351Z,41.15
2022-10-22T06:44:16.990Z,45.88
2022-10-22T06:46:44.637Z,37.50
2022-10-22T06:49:15.596Z,31.60
2022-10-22T06:51:42.903Z,38.97
2022-10-22T06:54:10.287Z,34.25
2022-10-22T06:56:37.605Z,41.53
2022-10-22T06:59:04.615Z,36.25
2022-10-22T07:01:36.553Z,92.43
2022-10-22T07:04:07.604Z,61.65
2022-10-22T07:06:35.198Z,51.08
2022-10-22T07:09:02.469Z,41.10
2022-10-22T07:11:42.930Z,34.97
2022-10-22T07:14:11.462Z,34.28
2022-10-22T07:16:39.307Z,33.55
2022-10-22T07:19:06.733Z,33.90
2022-10-22T07:21:33.937Z,32.63
2022-10-22T07:24:01.332Z,29.27
2022-10-22T07:26:31.027Z,33.92
2022-10-22T07:29:00.042Z,32.15
2022-10-22T07:31:28.123Z,32.80
2022-10-22T07:33:55.283Z,34.20
2022-10-22T07:36:22.591Z,36.78
2022-10-22T07:38:55.537Z,35.92
2022-10-22T07:41:23.813Z,41.13
2022-10-22T07:43:51.232Z,39.97
2022-10-22T07:46:19.046Z,35.95
2022-10-22T07:48:46.102Z,40.58
2022-10-22T07:51:13.541Z,43.70
2022-10-22T07:53:40.545Z,43.83
2022-10-22T07:56:08.166Z,43.53
2022-10-22T07:58:35.578Z,38.95
2022-10-22T08:01:06.010Z,47.53
2022-10-22T08:03:34.133Z,58.00
2022-10-22T08:06:02.245Z,46.00
2022-10-22T08:08:33.120Z,53.08
2022-10-22T08:11:01.687Z,74.70
2022-10-22T08:13:30.718Z,69.07
2022-10-22T08:16:01.845Z,114.03
2022-10-22T08:18:29.667Z,55.13
2022-10-22T08:20:57.554Z,76.18
2022-10-22T08:23:28.313Z,53.72
2022-10-22T08:25:57.220Z,55.05
2022-10-22T08:28:24.615Z,60.13
2022-10-22T08:30:52.102Z,65.60
2022-10-22T08:33:19.155Z,49.45
2022-10-22T08:35:51.055Z,43.53
2022-10-22T08:38:19.279Z,41.67
2022-10-22T08:40:53.795Z,42.00
2022-10-22T08:43:32.943Z,34.83
2022-10-22T08:46:10.672Z,34.70
2022-10-22T08:48:50.663Z,31.90
2022-10-22T08:51:24.861Z,31.90
2022-10-22T08:54:17.417Z,31.30
2022-10-22T08:56:50.950Z,29.35
2022-10-22T08:59:39.245Z,30.13
2022-10-22T09:02:22.897Z,29.17
2022-10-22T09:05:02.335Z,32.47
2022-10-22T09:07:29.760Z,30.02
2022-10-22T09:09:59.748Z,27.38
2022-10-22T09:12:28.075Z,26.95
2022-10-22T09:14:55.423Z,27.23
2022-10-22T09:17:36.734Z,31.77
2022-10-22T09:20:16.363Z,26.63
2022-10-22T09:22:52.717Z,27.63
2022-10-22T09:25:32.746Z,30.25
2022-10-22T09:28:00.416Z,27.95
2022-10-22T09:30:34.251Z,28.20
2022-10-22T09:33:06.021Z,27.02
2022-10-22T09:35:48.336Z,29.95
2022-10-22T09:38:19.248Z,30.17
2022-10-22T09:40:50.373Z,28.40
2022-10-22T09:43:18.647Z,33.78
2022-10-22T09:45:46.752Z,30.02
2022-10-22T09:48:26.383Z,29.52
2022-10-22T09:51:05.615Z,28.52
2022-10-22T09:53:41.881Z,29.42
2022-10-22T09:56:28.883Z,32.88
2022-10-22T09:58:57.881Z,30.60
2022-10-22T10:01:31.743Z,29.83
2022-10-22T10:04:09.773Z,29.00
2022-10-22T10:06:40.244Z,34.10
2022-10-22T10:09:18.319Z,38.58
2022-10-22T10:12:15.952Z,38.45
2022-10-22T10:15:08.060Z,34.03
2022-10-22T10:18:00.626Z,44.95
2022-10-22T10:20:51.377Z,37.50
2022-10-22T10:23:35.132Z,58.70
2022-10-22T10:26:14.359Z,131.73
2022-10-22T10:29:11.237Z,104.57
2022-10-22T10:32:00.357Z,90.47
2022-10-22T10:34:46.324Z,43.25
2022-10-22T10:37:26.312Z,76.72
2022-10-22T10:39:56.479Z,91.10
2022-10-22T10:43:12.060Z,125.70
2022-10-22T10:46:08.091Z,55.42
2022-10-22T10:48:58.496Z,41.63
2022-10-22T10:51:31.695Z,42.92
2022-10-22T10:53:58.850Z,77.68
2022-10-22T10:56:54.359Z,53.45
2022-10-22T11:02:40.366Z,44.60
2022-10-22T11:05:24.744Z,38.92
2022-10-22T11:08:10.882Z,50.05
2022-10-22T11:10:48.852Z,41.35
2022-10-22T11:13:22.466Z,53.72
2022-10-22T11:16:19.904Z,44.95
2022-10-22T11:18:55.530Z,34.70
2022-10-22T11:21:29.737Z,47.20
2022-10-22T11:24:08.352Z,41.78
2022-10-22T11:26:49.286Z,47.95
2022-10-22T11:29:22.965Z,50.33
2022-10-22T11:31:54.659Z,44.17
2022-10-22T11:34:39.644Z,37.08
2022-10-22T11:37:08.338Z,40.97
2022-10-22T11:39:39.298Z,43.25
2022-10-22T11:42:11.565Z,44.20
2022-10-22T11:45:01.740Z,39.60
2022-10-22T11:47:34.246Z,39.22
2022-10-22T11:50:21.724Z,39.60
2022-10-22T11:53:18.835Z,35.35
2022-10-22T11:55:55.346Z,36.33
2022-10-22T11:58:28.762Z,40.10
2022-10-22T12:01:01.878Z,57.92
2022-10-22T12:03:32.056Z,54.22
2022-10-22T12:06:15.711Z,48.10
2022-10-22T12:08:51.012Z,42.65
2022-10-22T12:14:03.771Z,39.35
2022-10-22T12:16:55.629Z,40.67
2022-10-22T12:19:24.793Z,40.05
2022-10-22T12:22:02.076Z,47.95
2022-10-22T12:24:32.946Z,41.78
2022-10-22T12:26:59.995Z,37.90
2022-10-22T12:29:28.588Z,51.00
2022-10-22T12:31:56.821Z,56.72
2022-10-22T12:34:25.554Z,45.40
2022-10-22T12:36:54.097Z,39.05
2022-10-22T12:39:26.111Z,34.67
2022-10-22T12:41:55.170Z,33.50
2022-10-22T12:44:22.354Z,36.83
2022-10-22T12:46:53.012Z,40.17
2022-10-22T12:49:30.659Z,58.17
2022-10-22T12:52:04.145Z,68.40
2022-10-22T12:54:33.618Z,53.45
2022-10-22T12:57:01.064Z,48.53
2022-10-22T12:59:34.746Z,43.78
2022-10-22T13:02:02.736Z,47.65
2022-10-22T13:04:35.558Z,50.17
2022-10-22T13:07:18.319Z,41.17
2022-10-22T13:09:58.597Z,39.60
2022-10-22T13:12:27.832Z,40.67
2022-10-22T13:14:55.270Z,32.00
2022-10-22T13:17:40.227Z,32.17
2022-10-22T13:20:21.721Z,36.72
2022-10-22T13:22:54.922Z,48.17
2022-10-22T13:25:33.965Z,40.72
2022-10-22T13:31:53.322Z,30.85
2022-10-22T13:34:25.661Z,35.15
2022-10-22T13:36:53.385Z,50.55
2022-10-22T13:39:22.932Z,54.60
2022-10-22T13:41:51.053Z,39.15
2022-10-22T13:44:19.690Z,44.08
2022-10-22T13:46:48.593Z,46.70
2022-10-22T13:49:18.198Z,38.90
2022-10-22T13:51:46.473Z,32.63
2022-10-22T13:54:20.057Z,37.15
2022-10-22T13:56:47.323Z,37.67
2022-10-22T13:59:16.253Z,34.67
2022-10-22T14:01:46.331Z,34.47
2022-10-22T14:04:15.114Z,35.05
2022-10-22T14:06:42.527Z,39.15
2022-10-22T14:09:15.723Z,46.30
2022-10-22T14:11:43.185Z,36.38
2022-10-22T14:14:14.374Z,29.80
2022-10-22T14:16:41.776Z,27.50
2022-10-22T14:19:16.421Z,29.02
2022-10-22T14:21:44.100Z,33.83
2022-10-22T14:24:14.170Z,32.50
2022-10-22T14:26:41.497Z,42.85
2022-10-22T14:29:11.812Z,33.72
2022-10-22T14:31:44.565Z,32.70
2022-10-22T14:34:14.690Z,35.25
2022-10-22T14:36:45.151Z,45.08
2022-10-22T14:39:13.321Z,43.83
2022-10-22T14:41:41.048Z,37.30
2022-10-22T14:44:14.312Z,35.50
2022-10-22T14:46:44.162Z,35.95
2022-10-22T14:49:11.635Z,34.55
2022-10-22T14:51:38.897Z,36.95
2022-10-22T14:54:05.992Z,39.75
2022-10-22T14:56:33.311Z,38.88
2022-10-22T14:59:00.372Z,47.13
2022-10-22T15:01:27.648Z,97.53
2022-10-22T15:03:54.672Z,93.68
2022-10-22T15:06:21.895Z,63.58
2022-10-22T15:08:49.059Z,61.15
2022-10-22T15:11:16.452Z,71.30
2022-10-22T15:13:43.754Z,61.92
2022-10-22T15:16:14.198Z,40.33
2022-10-22T15:18:41.429Z,50.92
2022-10-22T15:21:15.921Z,60.83
2022-10-22T15:23:43.180Z,53.10
2022-10-22T15:26:12.237Z,53.47
2022-10-22T15:28:40.700Z,59.38
2022-10-22T15:31:08.568Z,51.80
2022-10-22T15:33:35.558Z,64.10
2022-10-22T15:36:14.569Z,75.28
2022-10-22T15:38:42.166Z,67.55
2022-10-22T15:41:12.667Z,56.28
2022-10-22T15:43:39.714Z,48.25
2022-10-22T15:46:18.053Z,55.35
2022-10-22T15:48:45.813Z,57.92
2022-10-22T15:51:18.413Z,74.35
2022-10-22T15:53:51.683Z,61.85
2022-10-22T15:56:19.022Z,56.08
2022-10-22T15:58:46.026Z,48.65
2022-10-22T16:01:14.470Z,46.50
2022-10-22T16:03:42.171Z,45.63
2022-10-22T16:06:09.990Z,42.97
2022-10-22T16:08:37.918Z,53.60
2022-10-22T16:11:05.428Z,40.97
2022-10-22T16:13:32.491Z,55.03
2022-10-22T16:16:04.744Z,61.42
2022-10-22T16:18:31.804Z,53.30
2022-10-22T16:20:59.115Z,44.35
2022-10-22T16:23:26.281Z,43.65
2022-10-22T16:25:53.616Z,42.00
2022-10-22T16:28:20.807Z,42.45
2022-10-22T16:30:48.744Z,40.90
2022-10-22T16:33:15.840Z,44.97
2022-10-22T16:35:43.295Z,49.22
2022-10-22T16:38:12.197Z,41.97
2022-10-22T16:40:39.651Z,49.03
2022-10-22T16:43:06.778Z,41.85
2022-10-22T16:45:34.123Z,39.53
2022-10-22T16:48:01.371Z,50.72
2022-10-22T16:50:29.047Z,46.55
2022-10-22T16:52:56.453Z,47.53
2022-10-22T16:55:23.734Z,42.33
2022-10-22T16:57:52.310Z,44.03
2022-10-22T17:00:21.060Z,41.13
2022-10-22T17:02:53.393Z,56.88
2022-10-22T17:05:24.052Z,42.72
2022-10-22T17:07:51.200Z,42.72
2022-10-22T17:10:20.077Z,44.72
2022-10-22T17:12:47.989Z,42.30
2022-10-22T17:15:15.949Z,37.08
2022-10-22T17:17:43.190Z,41.30
2022-10-22T17:20:11.701Z,44.90
2022-10-22T17:22:38.940Z,44.83
2022-10-22T17:25:43.253Z,63.13
2022-10-22T17:28:11.672Z,47.03
2022-10-22T17:30:40.762Z,69.53
2022-10-22T17:33:08.705Z,57.55
2022-10-22T17:35:42.939Z,47.53
2022-10-22T17:38:10.258Z,47.50
2022-10-22T17:40:39.073Z,51.50
2022-10-22T17:43:06.223Z,69.88
2022-10-22T17:45:34.796Z,44.80
2022-10-22T17:48:01.894Z,45.80
2022-10-22T17:50:29.192Z,54.17
2022-10-22T17:52:56.426Z,71.18
2022-10-22T17:55:23.675Z,75.53
2022-10-22T17:57:50.899Z,70.03
2022-10-22T18:02:51.686Z,51.13
2022-10-22T18:05:18.986Z,57.13
2022-10-22T18:07:46.076Z,63.40
2022-10-22T18:10:13.383Z,51.80
2022-10-22T18:12:40.669Z,52.80
2022-10-22T18:15:08.647Z,45.58
2022-10-22T18:17:39.594Z,44.53
2022-10-22T18:20:07.956Z,54.72
2022-10-22T18:22:36.007Z,42.70
2022-10-22T18:25:03.479Z,41.60
2022-10-22T18:27:31.589Z,42.75
2022-10-22T18:29:58.847Z,59.95
2022-10-22T18:32:25.889Z,40.40
2022-10-22T18:34:53.232Z,41.40
2022-10-22T18:37:20.412Z,40.20
2022-10-22T18:39:49.302Z,43.58
2022-10-22T18:42:16.613Z,49.22
2022-10-22T18:44:44.037Z,67.63
2022-10-22T18:47:12.038Z,54.58
2022-10-22T18:49:40.178Z,46.47
2022-10-22T18:52:07.319Z,51.20
2022-10-22T18:54:35.485Z,41.03
2022-10-22T18:57:03.205Z,39.17
2022-10-22T18:59:31.360Z,39.20
2022-10-22T19:02:00.021Z,42.85
2022-10-22T19:04:33.221Z,37.40
2022-10-22T19:07:00.520Z,37.95
2022-10-22T19:09:27.904Z,41.08
2022-10-22T19:11:55.056Z,41.83
2022-10-22T19:14:22.702Z,55.83
2022-10-22T19:16:53.231Z,44.67
2022-10-22T19:19:22.087Z,47.45
2022-10-22T19:21:51.837Z,39.55
2022-10-22T19:24:20.582Z,37.05
2022-10-22T19:26:48.219Z,34.47
2022-10-22T19:29:17.475Z,33.20
2022-10-22T19:31:45.335Z,32.25
2022-10-22T19:34:13.486Z,32.15
2022-10-22T19:36:41.070Z,33.22
2022-10-22T19:39:09.052Z,39.50
2022-10-22T19:41:36.531Z,35.40
2022-10-22T19:44:04.146Z,36.55
2022-10-22T19:46:34.509Z,45.08
2022-10-22T19:49:04.342Z,38.83
2022-10-22T19:51:35.570Z,45.38
2022-10-22T19:54:05.791Z,38.92
2022-10-22T19:56:34.129Z,35.22
2022-10-22T19:59:05.543Z,32.08
2022-10-22T20:01:32.881Z,48.00
2022-10-22T20:04:01.595Z,61.80
2022-10-22T20:06:29.624Z,67.35
2022-10-22T20:08:57.364Z,56.60
2022-10-22T20:11:28.021Z,39.33
2022-10-22T20:13:56.787Z,34.45
2022-10-22T20:16:28.743Z,40.67
2022-10-22T20:19:00.879Z,35.25
2022-10-22T20:21:28.559Z,35.97
2022-10-22T20:23:57.458Z,41.53
2022-10-22T20:26:27.999Z,37.22
2022-10-22T20:28:56.771Z,36.20
2022-10-22T20:31:26.645Z,33.17
2022-10-22T20:33:59.698Z,30.60
2022-10-22T20:36:28.134Z,73.03
2022-10-22T20:39:00.747Z,103.53
2022-10-22T20:41:29.521Z,47.92
2022-10-22T20:43:57.296Z,41.13
2022-10-22T20:46:27.374Z,41.13
2022-10-22T20:48:59.627Z,42.45
2022-10-22T20:51:26.742Z,47.15
2022-10-22T20:53:54.076Z,41.35
2022-10-22T20:56:21.455Z,40.20
2022-10-22T20:58:50.607Z,36.83
2022-10-22T21:01:22.175Z,40.13
2022-10-22T21:03:53.120Z,43.13
2022-10-22T21:06:23.083Z,40.33
2022-10-22T21:08:51.461Z,43.63
2022-10-22T21:11:19.405Z,40.20
2022-10-22T21:13:46.931Z,39.55
2022-10-22T21:16:14.996Z,42.97
2022-10-22T21:18:42.411Z,39.67
2022-10-22T21:21:11.785Z,47.25
2022-10-22T21:23:39.187Z,43.63
2022-10-22T21:26:06.588Z,34.53
2022-10-22T21:28:35.790Z,45.13
2022-10-22T21:31:04.885Z,38.05
2022-10-22T21:33:35.518Z,39.25
2022-10-22T21:36:02.582Z,36.22
2022-10-22T21:38:31.162Z,31.88
2022-10-22T21:40:59.284Z,32.08
2022-10-22T21:43:26.531Z,32.83
2022-10-22T21:46:10.173Z,32.33
2022-10-22T21:48:38.715Z,32.20
2022-10-22T21:51:10.036Z,32.92
2022-10-22T21:53:37.971Z,32.88
2022-10-22T21:56:05.978Z,32.30
2022-10-22T21:58:36.525Z,31.52
2022-10-22T22:01:03.829Z,33.10
2022-10-22T22:03:31.166Z,36.80
2022-10-22T22:06:03.334Z,33.00
2022-10-22T22:08:31.411Z,32.08
2022-10-22T22:11:19.654Z,31.65
2022-10-22T22:13:48.749Z,29.90
2022-10-22T22:16:25.572Z,32.17
2022-10-22T22:19:00.508Z,30.65
2022-10-22T22:21:28.750Z,30.23
2022-10-22T22:23:57.545Z,29.58
2022-10-22T22:26:29.502Z,29.52
2022-10-22T22:29:00.348Z,32.00
2022-10-22T22:31:32.747Z,28.17
2022-10-22T22:33:59.928Z,31.02
2022-10-22T22:36:27.023Z,30.92
2022-10-22T22:38:56.243Z,30.83
2022-10-22T22:41:23.768Z,29.23
2022-10-22T22:43:51.079Z,26.52
2022-10-22T22:46:18.160Z,29.67
2022-10-22T22:48:49.445Z,26.63
2022-10-22T22:51:17.194Z,28.23
2022-10-22T22:53:44.514Z,30.73
2022-10-22T22:56:23.865Z,31.70
2022-10-22T22:58:51.453Z,29.40
2022-10-22T23:01:26.339Z,28.20
2022-10-22T23:04:02.079Z,26.60
2022-10-22T23:06:32.050Z,29.17
2022-10-22T23:08:59.733Z,28.65
2022-10-22T23:11:28.337Z,28.02
2022-10-22T23:13:59.827Z,28.58
2022-10-22T23:16:30.943Z,27.70
2022-10-22T23:18:59.580Z,30.27
2022-10-22T23:21:33.254Z,31.38
2022-10-22T23:24:02.975Z,30.10
2022-10-22T23:26:38.944Z,27.77
2022-10-22T23:29:16.812Z,27.83
2022-10-22T23:31:44.330Z,26.67
2022-10-22T23:34:14.092Z,27.25
2022-10-22T23:36:41.376Z,26.42
2022-10-22T23:39:11.140Z,27.88
2022-10-22T23:41:38.913Z,27.17
2022-10-22T23:44:06.926Z,27.83
2022-10-22T23:46:34.380Z,28.55
2022-10-22T23:49:01.890Z,28.08
2022-10-22T23:51:29.097Z,28.67
2022-10-22T23:53:59.469Z,26.35
2022-10-22T23:56:28.041Z,26.67
2022-10-22T23:58:56.180Z,25.90
